createdAt,value
2022-12-23T00:00:30.267Z,100326.88
2022-12-23T00:02:58.461Z,100328.88
2022-12-23T00:05:27.744Z,100320.56
2022-12-23T00:07:59.899Z,100318.31
2022-12-23T00:10:28.436Z,100323.47
2022-12-23T00:13:14.030Z,100315.75
2022-12-23T00:15:42.222Z,100312.28
2022-12-23T00:18:10.300Z,100305.44
2022-12-23T00:20:38.362Z,100295.03
2022-12-23T00:23:10.639Z,100303.44
2022-12-23T00:25:44.853Z,100304.47
2022-12-23T00:28:15.110Z,100302.88
2022-12-23T00:30:47.054Z,100314.00
2022-12-23T00:33:16.261Z,100314.00
2022-12-23T00:35:45.765Z,100324.31
2022-12-23T00:38:15.686Z,100326.00
2022-12-23T00:41:01.314Z,100331.94
2022-12-23T00:43:33.148Z,100325.25
2022-12-23T00:46:01.225Z,100322.97
2022-12-23T00:48:47.085Z,100323.13
2022-12-23T00:51:15.322Z,100313.88
2022-12-23T00:53:45.368Z,100311.34
2022-12-23T00:56:13.403Z,100302.00
2022-12-23T00:58:41.406Z,100302.16
2022-12-23T01:01:27.496Z,100292.75
2022-12-23T01:04:13.243Z,100278.22
2022-12-23T01:06:41.837Z,100273.94
2022-12-23T01:09:11.855Z,100261.84
2022-12-23T01:11:40.320Z,100255.84
2022-12-23T01:14:11.987Z,100247.28
2022-12-23T01:16:40.913Z,100251.47
2022-12-23T01:19:09.523Z,100249.81
2022-12-23T01:21:38.086Z,100253.16
2022-12-23T01:24:06.803Z,100242.97
2022-12-23T01:26:36.610Z,100232.78
2022-12-23T01:29:05.127Z,100226.75
2022-12-23T01:31:35.651Z,100206.19
2022-12-23T01:34:04.224Z,100208.53
2022-12-23T01:36:32.530Z,100193.97
2022-12-23T01:39:00.865Z,100200.66
2022-12-23T01:41:49.232Z,100204.09
2022-12-23T01:44:56.511Z,100190.84
2022-12-23T01:47:35.483Z,100195.19
2022-12-23T01:50:08.917Z,100189.38
2022-12-23T01:52:42.781Z,100181.88
2022-12-23T01:55:12.091Z,100182.84
2022-12-23T01:57:44.164Z,100183.09
2022-12-23T02:00:32.588Z,100185.94
2022-12-23T02:03:19.098Z,100189.56
2022-12-23T02:05:48.294Z,100186.34
2022-12-23T02:08:34.471Z,100172.91
2022-12-23T02:11:23.521Z,100173.06
2022-12-23T02:14:16.277Z,100174.78
2022-12-23T02:16:52.449Z,100195.41
2022-12-23T02:19:34.943Z,100176.91
2022-12-23T02:22:21.193Z,100182.25
2022-12-23T02:25:19.139Z,100185.06
2022-12-23T02:28:04.561Z,100185.38
2022-12-23T02:30:45.300Z,100180.50
2022-12-23T02:33:34.027Z,100182.34
2022-12-23T02:36:19.817Z,100184.19
2022-12-23T02:38:58.243Z,100180.81
2022-12-23T02:41:35.576Z,100182.66
2022-12-23T02:44:13.290Z,100180.19
2022-12-23T02:46:48.231Z,100163.09
2022-12-23T02:49:21.935Z,100148.53
2022-12-23T02:51:53.858Z,100155.19
2022-12-23T02:54:26.685Z,100140.66
2022-12-23T02:56:58.395Z,100130.47
2022-12-23T02:59:31.618Z,100118.53
2022-12-23T03:02:02.700Z,100095.56
2022-12-23T03:04:30.819Z,100094.72
2022-12-23T03:07:04.479Z,100091.28
2022-12-23T03:09:53.599Z,100092.09
2022-12-23T03:12:31.313Z,100086.09
2022-12-23T03:15:12.245Z,100083.41
2022-12-23T03:17:57.491Z,100087.59
2022-12-23T03:20:32.248Z,100080.09
2022-12-23T03:23:05.098Z,100081.22
2022-12-23T03:25:37.238Z,100061.75
2022-12-23T03:28:12.432Z,100055.06
2022-12-23T03:30:44.341Z,100049.25
2022-12-23T03:33:18.107Z,100039.13
2022-12-23T03:35:50.693Z,100038.38
2022-12-23T03:38:22.916Z,100034.28
2022-12-23T03:40:54.996Z,100026.00
2022-12-23T03:43:27.326Z,100021.91
2022-12-23T03:46:00.795Z,100028.88
2022-12-23T03:48:35.537Z,100014.50
2022-12-23T03:51:07.896Z,100008.63
2022-12-23T03:53:40.538Z,100001.06
2022-12-23T03:56:13.115Z,99996.09
2022-12-23T03:58:46.430Z,99996.22
2022-12-23T04:01:41.028Z,99991.16
2022-12-23T04:04:16.451Z,99978.50
2022-12-23T04:06:53.045Z,99976.13
2022-12-23T04:09:24.388Z,99966.91
2022-12-23T04:11:53.327Z,99958.59
2022-12-23T04:14:23.087Z,99951.81
2022-12-23T04:16:55.856Z,99938.22
2022-12-23T04:19:28.018Z,99947.81
2022-12-23T04:21:57.892Z,99934.56
2022-12-23T04:24:26.128Z,99930.00
2022-12-23T04:26:54.342Z,99925.25
2022-12-23T04:29:22.436Z,99913.47
2022-12-23T04:31:50.806Z,99906.22
2022-12-23T04:34:18.836Z,99900.56
2022-12-23T04:36:48.328Z,99898.38
2022-12-23T04:39:16.300Z,99885.94
2022-12-23T04:41:44.315Z,99883.63
2022-12-23T04:44:12.302Z,99884.81
2022-12-23T04:46:41.109Z,99877.34
2022-12-23T04:49:10.642Z,99874.94
2022-12-23T04:51:38.771Z,99864.91
2022-12-23T04:54:08.359Z,99857.34
2022-12-23T04:56:36.473Z,99852.38
2022-12-23T04:59:04.895Z,99846.56
2022-12-23T05:01:33.036Z,99836.56
2022-12-23T05:04:01.211Z,99820.47
2022-12-23T05:06:29.668Z,99818.81
2022-12-23T05:08:57.758Z,99806.13
2022-12-23T05:11:29.000Z,99792.59
2022-12-23T05:13:57.075Z,99799.53
2022-12-23T05:16:25.732Z,99786.06
2022-12-23T05:18:53.868Z,99779.44
2022-12-23T05:21:21.929Z,99770.91
2022-12-23T05:23:50.193Z,99764.97
2022-12-23T05:26:18.229Z,99764.25
2022-12-23T05:28:47.706Z,99769.44
2022-12-23T05:31:17.399Z,99761.03
2022-12-23T05:33:47.868Z,99759.47
2022-12-23T05:36:16.154Z,99753.56
2022-12-23T05:38:44.423Z,99755.34
2022-12-23T05:41:12.547Z,99752.88
2022-12-23T05:43:40.607Z,99734.16
2022-12-23T05:46:10.246Z,99734.22
2022-12-23T05:48:38.310Z,99736.81
2022-12-23T05:51:06.658Z,99734.34
2022-12-23T05:53:34.935Z,99727.53
2022-12-23T05:56:06.380Z,99712.19
2022-12-23T05:58:34.457Z,99717.38
2022-12-23T06:01:03.400Z,99716.56
2022-12-23T06:03:33.125Z,99708.97
2022-12-23T06:06:01.399Z,99694.47
2022-12-23T06:08:29.547Z,99693.66
2022-12-23T06:11:00.003Z,99687.75
2022-12-23T06:13:28.300Z,99688.66
2022-12-23T06:15:56.383Z,99680.97
2022-12-23T06:18:24.695Z,99680.16
2022-12-23T06:20:54.658Z,99664.81
2022-12-23T06:23:24.780Z,99668.28
2022-12-23T06:26:01.852Z,99651.25
2022-12-23T06:28:31.086Z,99643.59
2022-12-23T06:30:59.598Z,99638.47
2022-12-23T06:33:27.705Z,99629.06
2022-12-23T06:35:57.621Z,99620.53
2022-12-23T06:38:26.021Z,99628.28
2022-12-23T06:40:54.417Z,99617.19
2022-12-23T06:43:23.711Z,99606.94
2022-12-23T06:45:52.157Z,99608.63
2022-12-23T06:48:20.675Z,99595.78
2022-12-23T06:50:48.885Z,99581.28
2022-12-23T06:53:18.970Z,99587.31
2022-12-23T06:55:47.269Z,99581.34
2022-12-23T06:58:15.306Z,99585.66
2022-12-23T07:00:43.682Z,99571.97
2022-12-23T07:03:12.053Z,99562.50
2022-12-23T07:05:40.565Z,99560.84
2022-12-23T07:08:08.692Z,99556.59
2022-12-23T07:10:39.368Z,99552.28
2022-12-23T07:13:07.480Z,99554.91
2022-12-23T07:15:35.533Z,99566.91
2022-12-23T07:18:03.696Z,99567.75
2022-12-23T07:20:31.870Z,99570.34
2022-12-23T07:23:00.218Z,99576.31
2022-12-23T07:25:28.924Z,99575.50
2022-12-23T07:27:58.681Z,99577.22
2022-12-23T07:30:27.069Z,99583.19
2022-12-23T07:32:59.370Z,99587.50
2022-12-23T07:35:27.430Z,99584.88
2022-12-23T07:37:57.049Z,99584.88
2022-12-23T07:40:26.005Z,99583.13
2022-12-23T07:42:58.175Z,99581.38
2022-12-23T07:45:29.274Z,99586.41
2022-12-23T07:48:00.213Z,99576.91
2022-12-23T07:50:29.107Z,99571.69
2022-12-23T07:52:57.198Z,99567.38
2022-12-23T07:55:26.401Z,99552.75
2022-12-23T07:57:54.721Z,99551.81
2022-12-23T08:00:24.950Z,99550.06
2022-12-23T08:02:54.484Z,99542.28
2022-12-23T08:05:23.170Z,99543.06
2022-12-23T08:07:52.879Z,99543.00
2022-12-23T08:10:21.456Z,99530.16
2022-12-23T08:12:49.493Z,99521.63
2022-12-23T08:15:17.557Z,99509.59
2022-12-23T08:17:46.008Z,99509.59
2022-12-23T08:20:16.040Z,99496.75
2022-12-23T08:22:44.477Z,99489.88
2022-12-23T08:25:12.948Z,99497.56
2022-12-23T08:27:41.024Z,99488.16
2022-12-23T08:30:10.743Z,99479.63
2022-12-23T08:32:39.245Z,99495.00
2022-12-23T08:35:08.169Z,99498.44
2022-12-23T08:37:38.066Z,99490.78
2022-12-23T08:40:07.431Z,99502.75
2022-12-23T08:42:35.987Z,99501.84
2022-12-23T08:45:04.915Z,99496.75
2022-12-23T08:47:33.201Z,99491.63
2022-12-23T08:50:01.490Z,99493.34
2022-12-23T08:52:29.972Z,99483.09
2022-12-23T08:55:01.985Z,99483.97
2022-12-23T08:57:30.185Z,99485.72
2022-12-23T08:59:58.464Z,99474.63
2022-12-23T09:02:30.089Z,99473.78
2022-12-23T09:05:01.203Z,99465.22
2022-12-23T09:07:33.949Z,99459.25
2022-12-23T09:10:07.751Z,99449.88
2022-12-23T09:12:35.995Z,99449.88
2022-12-23T09:15:04.650Z,99448.16
2022-12-23T09:17:32.841Z,99444.72
2022-12-23T09:20:01.593Z,99444.72
2022-12-23T09:22:33.313Z,99437.00
2022-12-23T09:25:07.632Z,99431.03
2022-12-23T09:27:38.392Z,99424.19
2022-12-23T09:30:07.633Z,99421.66
2022-12-23T09:32:36.399Z,99413.13
2022-12-23T09:35:05.477Z,99419.13
2022-12-23T09:37:33.872Z,99414.03
2022-12-23T09:40:03.482Z,99414.06
2022-12-23T09:42:48.239Z,99403.81
2022-12-23T09:45:27.349Z,99398.69
2022-12-23T09:47:57.341Z,99411.50
2022-12-23T09:50:29.964Z,99405.53
2022-12-23T09:53:02.618Z,99406.44
2022-12-23T09:55:41.858Z,99405.53
2022-12-23T09:58:21.678Z,99400.41
2022-12-23T10:01:12.163Z,99401.25
2022-12-23T10:03:57.446Z,99397.84
2022-12-23T10:06:30.341Z,99397.84
2022-12-23T10:09:04.188Z,99402.16
2022-12-23T10:11:38.092Z,99389.38
2022-12-23T10:14:15.966Z,99391.09
2022-12-23T10:16:46.810Z,99399.69
2022-12-23T10:19:23.317Z,99404.81
2022-12-23T10:21:56.319Z,99407.38
2022-12-23T10:24:27.992Z,99405.72
2022-12-23T10:26:58.138Z,99409.16
2022-12-23T10:29:31.957Z,99398.97
2022-12-23T10:32:12.970Z,99390.47
2022-12-23T10:34:52.085Z,99387.16
2022-12-23T10:37:29.575Z,99352.16
2022-12-23T10:40:11.902Z,99343.72
2022-12-23T10:42:47.925Z,99347.28
2022-12-23T10:45:39.881Z,99350.00
2022-12-23T10:48:22.583Z,99356.94
2022-12-23T10:51:02.563Z,99357.84
2022-12-23T10:53:37.109Z,99349.28
2022-12-23T10:56:06.836Z,99361.25
2022-12-23T10:58:38.796Z,99356.09
2022-12-23T11:01:18.692Z,99344.06
2022-12-23T11:04:01.209Z,99346.69
2022-12-23T11:06:37.160Z,99344.16
2022-12-23T11:09:13.715Z,99343.38
2022-12-23T11:11:58.017Z,99337.44
2022-12-23T11:14:38.349Z,99335.75
2022-12-23T11:17:18.868Z,99339.25
2022-12-23T11:19:47.103Z,99332.44
2022-12-23T11:22:26.819Z,99326.50
2022-12-23T11:24:55.293Z,99331.69
2022-12-23T11:27:23.534Z,99332.56
2022-12-23T11:29:55.831Z,99329.13
2022-12-23T11:32:28.776Z,99325.69
2022-12-23T11:35:00.712Z,99317.13
2022-12-23T11:37:45.871Z,99317.97
2022-12-23T11:40:24.520Z,99308.56
2022-12-23T11:42:58.391Z,99317.06
2022-12-23T11:45:31.193Z,99311.06
2022-12-23T11:48:06.912Z,99309.34
2022-12-23T11:50:37.977Z,99301.63
2022-12-23T11:53:16.284Z,99296.47
2022-12-23T11:56:01.392Z,99295.59
2022-12-23T11:58:31.307Z,99306.72
2022-12-23T12:01:01.884Z,99308.41
2022-12-23T12:03:36.473Z,99299.81
2022-12-23T12:06:07.034Z,99302.41
2022-12-23T12:08:39.465Z,99301.53
2022-12-23T12:11:16.169Z,99294.69
2022-12-23T12:13:46.670Z,99295.50
2022-12-23T12:16:27.907Z,99295.50
2022-12-23T12:19:04.059Z,99298.06
2022-12-23T12:21:38.559Z,99300.63
2022-12-23T12:24:18.894Z,99312.59
2022-12-23T12:26:51.379Z,99305.75
2022-12-23T12:29:25.666Z,99318.63
2022-12-23T12:31:57.256Z,99325.50
2022-12-23T12:34:44.014Z,99337.50
2022-12-23T12:37:23.881Z,99338.34
2022-12-23T12:39:58.039Z,99321.22
2022-12-23T12:42:31.812Z,99327.22
2022-12-23T12:45:11.973Z,99316.94
2022-12-23T12:48:05.998Z,99320.38
2022-12-23T12:50:36.627Z,99323.81
2022-12-23T12:53:13.882Z,99331.53
2022-12-23T12:55:46.463Z,99325.50
2022-12-23T12:58:26.261Z,99338.34
2022-12-23T13:01:09.482Z,99331.53
2022-12-23T13:04:19.121Z,99339.25
2022-12-23T13:06:56.856Z,99325.56
2022-12-23T13:09:38.348Z,99330.69
2022-12-23T13:12:15.148Z,99339.25
2022-12-23T13:15:01.348Z,99333.25
2022-12-23T13:17:35.084Z,99323.84
2022-12-23T13:20:17.547Z,99325.56
2022-12-23T13:22:51.633Z,99320.44
2022-12-23T13:25:23.737Z,99329.91
2022-12-23T13:27:57.638Z,99324.81
2022-12-23T13:30:32.895Z,99336.00
2022-12-23T13:33:16.313Z,99317.09
2022-12-23T13:40:22.956Z,99327.16
2022-12-23T13:43:02.274Z,99335.63
2022-12-23T13:45:37.744Z,99333.06
2022-12-23T13:48:20.749Z,99342.53
2022-12-23T13:50:58.677Z,99346.03
2022-12-23T13:53:37.223Z,99344.38
2022-12-23T13:56:19.690Z,99351.28
2022-12-23T13:58:50.336Z,99359.91
2022-12-23T14:01:37.559Z,99372.81
2022-12-23T14:04:37.250Z,99363.38
2022-12-23T14:07:19.394Z,99376.25
2022-12-23T14:09:53.414Z,99385.69
2022-12-23T14:12:28.653Z,99396.03
2022-12-23T14:15:22.579Z,99404.63
2022-12-23T14:18:05.069Z,99418.38
2022-12-23T14:20:44.910Z,99423.53
2022-12-23T14:23:30.458Z,99430.41
2022-12-23T14:26:20.399Z,99430.41
2022-12-23T14:29:03.676Z,99439.00
2022-12-23T14:31:40.019Z,99440.72
2022-12-23T14:34:29.812Z,99444.16
2022-12-23T14:37:30.631Z,99433.84
2022-12-23T14:39:59.661Z,99440.72
2022-12-23T14:42:42.503Z,99434.72
2022-12-23T14:45:36.401Z,99434.72
2022-12-23T14:48:32.613Z,99435.56
2022-12-23T14:51:02.816Z,99432.13
2022-12-23T14:53:31.504Z,99433.84
2022-12-23T14:56:13.577Z,99440.69
2022-12-23T14:59:15.751Z,99440.69
2022-12-23T15:01:49.800Z,99444.09
2022-12-23T15:04:22.299Z,99444.94
2022-12-23T15:06:54.569Z,99442.34
2022-12-23T15:09:26.373Z,99448.34
2022-12-23T15:11:55.836Z,99448.34
2022-12-23T15:14:32.921Z,99462.91
2022-12-23T15:17:16.287Z,99460.31
2022-12-23T15:19:47.327Z,99467.13
2022-12-23T15:22:25.177Z,99476.53
2022-12-23T15:24:58.632Z,99480.78
2022-12-23T15:27:29.644Z,99479.88
2022-12-23T15:29:58.908Z,99485.00
2022-12-23T15:32:30.781Z,99488.41
2022-12-23T15:35:04.564Z,99484.09
2022-12-23T15:37:33.642Z,99490.94
2022-12-23T15:40:12.682Z,99490.03
2022-12-23T15:42:48.730Z,99490.00
2022-12-23T15:45:33.702Z,99496.81
2022-12-23T15:48:04.234Z,99496.78
2022-12-23T15:50:41.592Z,99493.28
2022-12-23T15:53:11.918Z,99500.97
2022-12-23T15:55:41.832Z,99515.50
2022-12-23T15:58:16.801Z,99530.88
2022-12-23T16:00:53.463Z,99517.13
2022-12-23T16:03:29.702Z,99529.97
2022-12-23T16:06:08.487Z,99533.41
2022-12-23T16:08:37.202Z,99537.59
2022-12-23T16:11:13.621Z,99541.00
2022-12-23T16:13:47.346Z,99546.09
2022-12-23T16:16:38.194Z,99558.88
2022-12-23T16:19:10.096Z,99561.38
2022-12-23T16:21:38.783Z,99568.13
2022-12-23T16:24:09.819Z,99561.22
2022-12-23T16:26:42.076Z,99567.19
2022-12-23T16:29:11.951Z,99573.09
2022-12-23T16:31:45.746Z,99579.91
2022-12-23T16:34:22.072Z,99581.56
2022-12-23T16:36:50.212Z,99578.13
2022-12-23T16:39:22.687Z,99584.09
2022-12-23T16:41:51.275Z,99583.19
2022-12-23T16:44:19.734Z,99584.03
2022-12-23T16:46:50.984Z,99579.78
2022-12-23T16:49:25.523Z,99580.63
2022-12-23T16:51:57.780Z,99585.78
2022-12-23T16:54:25.947Z,99584.09
2022-12-23T16:56:55.028Z,99573.78
2022-12-23T16:59:26.068Z,99578.00
2022-12-23T17:01:58.106Z,99580.53
2022-12-23T17:04:32.422Z,99574.47
2022-12-23T17:07:00.942Z,99571.06
2022-12-23T17:09:28.963Z,99574.44
2022-12-23T17:11:57.624Z,99572.72
2022-12-23T17:14:26.919Z,99568.50
2022-12-23T17:16:55.059Z,99567.69
2022-12-23T17:19:28.858Z,99577.94
2022-12-23T17:22:02.448Z,99571.06
2022-12-23T17:24:31.566Z,99567.63
2022-12-23T17:26:59.586Z,99573.59
2022-12-23T17:29:28.386Z,99570.19
2022-12-23T17:31:57.268Z,99578.78
2022-12-23T17:34:33.313Z,99579.56
2022-12-23T17:37:03.101Z,99586.41
2022-12-23T17:39:32.688Z,99600.94
2022-12-23T17:42:00.766Z,99611.19
2022-12-23T17:44:28.798Z,99620.59
2022-12-23T17:47:03.280Z,99632.56
2022-12-23T17:49:31.384Z,99630.84
2022-12-23T17:51:59.702Z,99637.66
2022-12-23T17:54:29.277Z,99642.03
2022-12-23T17:56:58.778Z,99650.75
2022-12-23T17:59:27.196Z,99655.19
2022-12-23T18:01:55.553Z,99655.25
2022-12-23T18:04:23.769Z,99662.22
2022-12-23T18:06:56.874Z,99659.72
2022-12-23T18:09:25.011Z,99666.59
2022-12-23T18:11:55.057Z,99669.19
2022-12-23T18:14:29.345Z,99660.59
2022-12-23T18:16:57.595Z,99666.59
2022-12-23T18:19:26.103Z,99665.75
2022-12-23T18:21:54.641Z,99659.78
2022-12-23T18:24:22.899Z,99662.22
2022-12-23T18:26:50.969Z,99672.28
2022-12-23T18:29:39.357Z,99675.50
2022-12-23T18:32:10.305Z,99678.69
2022-12-23T18:34:38.801Z,99683.69
2022-12-23T18:37:09.237Z,99682.78
2022-12-23T18:39:48.550Z,99704.91
2022-12-23T18:42:37.824Z,99700.59
2022-12-23T18:45:25.472Z,99709.19
2022-12-23T18:48:00.290Z,99716.84
2022-12-23T18:50:37.233Z,99717.69
2022-12-23T18:53:05.997Z,99731.28
2022-12-23T18:55:34.587Z,99732.91
2022-12-23T18:58:02.801Z,99727.81
2022-12-23T19:00:33.669Z,99730.44
2022-12-23T19:03:41.624Z,99730.34
2022-12-23T19:06:11.291Z,99734.44
2022-12-23T19:08:40.506Z,99733.44
2022-12-23T19:11:38.332Z,99740.97
2022-12-23T19:14:06.611Z,99740.84
2022-12-23T19:16:36.254Z,99735.59
2022-12-23T19:19:08.853Z,99743.28
2022-12-23T19:21:37.715Z,99738.16
2022-12-23T19:24:06.137Z,99734.78
2022-12-23T19:26:36.355Z,99745.94
2022-12-23T19:29:04.823Z,99745.97
2022-12-23T19:31:43.142Z,99740.09
2022-12-23T19:34:15.078Z,99739.28
2022-12-23T19:36:43.919Z,99732.50
2022-12-23T19:39:16.388Z,99739.34
2022-12-23T19:41:45.112Z,99732.66
2022-12-23T19:44:14.304Z,99737.88
2022-12-23T19:46:47.109Z,99734.59
2022-12-23T19:49:19.866Z,99735.56
2022-12-23T19:51:49.356Z,99742.53
2022-12-23T19:54:19.583Z,99740.06
2022-12-23T19:56:47.821Z,99739.28
2022-12-23T19:59:15.994Z,99753.03
2022-12-23T20:01:47.493Z,99746.16
2022-12-23T20:04:16.701Z,99750.47
2022-12-23T20:06:48.952Z,99753.09
2022-12-23T20:09:17.295Z,99754.84
2022-12-23T20:11:49.474Z,99746.28
2022-12-23T20:14:25.852Z,99757.41
2022-12-23T20:16:58.588Z,99765.22
2022-12-23T20:19:26.869Z,99766.16
2022-12-23T20:21:55.066Z,99762.81
2022-12-23T20:24:23.144Z,99768.84
2022-12-23T20:26:51.296Z,99764.63
2022-12-23T20:29:22.413Z,99763.91
2022-12-23T20:31:50.641Z,99758.88
2022-12-23T20:34:20.116Z,99761.53
2022-12-23T20:36:48.253Z,99764.16
2022-12-23T20:39:16.492Z,99783.91
2022-12-23T20:41:44.744Z,99779.66
2022-12-23T20:47:01.436Z,99793.38
2022-12-23T20:49:31.139Z,99791.69
2022-12-23T20:51:59.330Z,99794.25
2022-12-23T20:54:32.791Z,99798.53
2022-12-23T20:57:02.451Z,99806.25
2022-12-23T20:59:30.790Z,99810.56
2022-12-23T21:01:59.701Z,99806.31
2022-12-23T21:04:28.124Z,99805.47
2022-12-23T21:06:57.700Z,99812.28
2022-12-23T21:09:25.794Z,99811.38
2022-12-23T21:11:53.971Z,99821.59
2022-12-23T21:14:22.000Z,99827.50
2022-12-23T21:16:50.194Z,99832.56
2022-12-23T21:19:20.057Z,99835.81
2022-12-23T21:21:49.876Z,99834.84
2022-12-23T21:24:20.321Z,99835.56
2022-12-23T21:26:56.500Z,99839.00
2022-12-23T21:29:26.204Z,99843.38
2022-12-23T21:31:55.302Z,99840.81
2022-12-23T21:34:23.754Z,99839.91
2022-12-23T21:36:52.949Z,99840.78
2022-12-23T21:39:22.546Z,99851.13
2022-12-23T21:41:51.684Z,99854.63
2022-12-23T21:44:19.865Z,99853.84
2022-12-23T21:46:47.948Z,99859.91
2022-12-23T21:49:16.431Z,99859.16
2022-12-23T21:51:49.187Z,99865.19
2022-12-23T21:54:17.355Z,99872.94
2022-12-23T21:56:48.590Z,99867.81
2022-12-23T21:59:17.429Z,99873.78
2022-12-23T22:01:45.906Z,99882.31
2022-12-23T22:04:15.580Z,99875.38
2022-12-23T22:06:45.941Z,99878.75
2022-12-23T22:09:16.532Z,99882.09
2022-12-23T22:11:46.802Z,99881.25
2022-12-23T22:14:18.517Z,99891.53
2022-12-23T22:16:47.170Z,99895.00
2022-12-23T22:19:15.693Z,99894.16
2022-12-23T22:21:46.019Z,99907.03
2022-12-23T22:24:14.158Z,99904.50
2022-12-23T22:26:42.386Z,99915.59
2022-12-23T22:29:13.716Z,99910.47
2022-12-23T22:31:46.357Z,99920.75
2022-12-23T22:34:16.595Z,99920.78
2022-12-23T22:36:55.546Z,99922.50
2022-12-23T22:39:26.585Z,99922.56
2022-12-23T22:41:57.811Z,99925.91
2022-12-23T22:44:26.047Z,99942.16
2022-12-23T22:46:55.715Z,99946.41
2022-12-23T22:49:29.909Z,99946.41
2022-12-23T22:51:57.980Z,99955.81
2022-12-23T22:54:26.267Z,99954.97
2022-12-23T22:56:55.553Z,99960.97
2022-12-23T22:59:25.481Z,99956.69
2022-12-23T23:01:55.630Z,99949.81
2022-12-23T23:04:23.531Z,99957.56
2022-12-23T23:06:52.793Z,99954.97
2022-12-23T23:09:23.008Z,99961.81
2022-12-23T23:11:51.172Z,99958.34
2022-12-23T23:14:19.875Z,99966.81
2022-12-23T23:16:48.269Z,99965.06
2022-12-23T23:19:20.500Z,99978.66
2022-12-23T23:21:48.943Z,99975.00
2022-12-23T23:24:17.608Z,99971.31
2022-12-23T23:26:45.750Z,99970.16
2022-12-23T23:29:13.835Z,99981.81
2022-12-23T23:31:43.650Z,99992.63
2022-12-23T23:34:12.475Z,100001.88
2022-12-23T23:36:43.173Z,100007.78
2022-12-23T23:39:13.182Z,100008.56
2022-12-23T23:41:41.552Z,100011.88
2022-12-23T23:44:10.192Z,100010.78
2022-12-23T23:46:38.307Z,100015.66
2022-12-23T23:49:06.539Z,100014.59
2022-12-23T23:51:35.113Z,100018.03
2022-12-23T23:54:04.771Z,100015.34
2022-12-23T23:56:38.094Z,100021.19
2022-12-23T23:59:07.712Z,100015.06
